Time;durP1;ratioP1;P1;durP2;ratioP2;P2;SDS_P1;SDS_P2;PMS_P1;PMS_P2;Temp;Humidity;BMP_temperature;BMP_pressure;BME280_temperature;BME280_humidity;BME280_pressure;Samples;Min_cycle;Max_cycle;Signal;HPM_P1;HPM_P2
2022/11/27 00:01:40;;;;;;;9.88;8.45;;;;;;;;;;5119133;27;20380;-85
2022/11/27 00:04:07;;;;;;;9.48;8.25;;;;;;;;;;5120185;27;20874;-84
2022/11/27 00:06:33;;;;;;;9.73;8.80;;;;;;;;;;5134911;27;20436;-85
2022/11/27 00:09:00;;;;;;;8.95;8.05;;;;;;;;;;5128736;27;20389;-85
2022/11/27 00:11:30;;;;;;;7.23;6.30;;;;;;;;;;5125555;27;20399;-84
2022/11/27 00:13:57;;;;;;;7.75;6.65;;;;;;;;;;5131923;27;20422;-85
2022/11/27 00:16:23;;;;;;;7.90;7.03;;;;;;;;;;5123012;27;20566;-86
2022/11/27 00:18:49;;;;;;;7.60;6.85;;;;;;;;;;5119940;27;20371;-84
2022/11/27 00:21:21;;;;;;;8.45;7.55;;;;;;;;;;5116905;27;20391;-85
2022/11/27 00:23:47;;;;;;;9.18;7.50;;;;;;;;;;5116410;27;20383;-85
2022/11/27 00:26:13;;;;;;;9.45;8.10;;;;;;;;;;5096594;28;20491;-86
2022/11/27 00:28:39;;;;;;;13.95;12.07;;;;;;;;;;5113331;27;20410;-84
2022/11/27 00:31:07;;;;;;;15.00;12.73;;;;;;;;;;5114330;27;20381;-85
2022/11/27 00:33:33;;;;;;;13.27;11.63;;;;;;;;;;5134737;27;20414;-85
2022/11/27 00:36:02;;;;;;;10.95;9.75;;;;;;;;;;5131799;27;20394;-84
2022/11/27 00:38:28;;;;;;;9.57;8.67;;;;;;;;;;5124205;27;20466;-85
2022/11/27 00:40:57;;;;;;;9.50;8.20;;;;;;;;;;5118591;27;20372;-85
2022/11/27 00:43:23;;;;;;;8.73;7.50;;;;;;;;;;5115349;27;20417;-85
2022/11/27 00:45:49;;;;;;;7.78;7.07;;;;;;;;;;5114070;27;20389;-85
2022/11/27 00:48:17;;;;;;;8.02;7.22;;;;;;;;;;5129560;27;20743;-85
2022/11/27 00:50:43;;;;;;;7.28;6.60;;;;;;;;;;5129176;27;20429;-85
2022/11/27 00:53:09;;;;;;;7.88;7.00;;;;;;;;;;5117535;27;20458;-85
2022/11/27 00:55:35;;;;;;;7.50;6.80;;;;;;;;;;5113156;27;20368;-85
2022/11/27 00:58:01;;;;;;;9.27;8.25;;;;;;;;;;5116993;27;20708;-85
2022/11/27 01:00:27;;;;;;;8.00;7.20;;;;;;;;;;5103750;27;20419;-85
2022/11/27 01:02:53;;;;;;;8.32;7.35;;;;;;;;;;5118205;27;20426;-85
2022/11/27 01:05:19;;;;;;;7.35;6.53;;;;;;;;;;5116699;27;20379;-85
2022/11/27 01:07:45;;;;;;;7.88;6.80;;;;;;;;;;5121480;27;20853;-84
2022/11/27 01:10:11;;;;;;;7.55;6.40;;;;;;;;;;5116528;27;20463;-84
2022/11/27 01:12:37;;;;;;;8.63;6.88;;;;;;;;;;5114280;27;20380;-87
2022/11/27 01:15:03;;;;;;;7.90;7.10;;;;;;;;;;5114880;27;20378;-84
2022/11/27 01:17:29;;;;;;;7.07;6.30;;;;;;;;;;5121766;27;20443;-84
2022/11/27 01:19:55;;;;;;;7.32;6.63;;;;;;;;;;5132198;27;20810;-84
2022/11/27 01:22:21;;;;;;;6.75;6.10;;;;;;;;;;5133223;27;20385;-85
2022/11/27 01:24:47;;;;;;;7.28;6.30;;;;;;;;;;5133313;27;20445;-86
2022/11/27 01:27:13;;;;;;;6.53;5.85;;;;;;;;;;5124636;27;20407;-84
2022/11/27 01:29:39;;;;;;;6.93;6.22;;;;;;;;;;5133918;27;20382;-84
2022/11/27 01:32:05;;;;;;;6.45;5.85;;;;;;;;;;5133800;27;20375;-84
2022/11/27 01:34:31;;;;;;;5.70;5.20;;;;;;;;;;5134080;27;20381;-84
2022/11/27 01:36:57;;;;;;;5.93;5.10;;;;;;;;;;5115594;27;20387;-84
2022/11/27 01:39:23;;;;;;;5.93;5.23;;;;;;;;;;5133402;27;20506;-84
2022/11/27 01:41:50;;;;;;;5.38;4.88;;;;;;;;;;5133985;27;20378;-84
2022/11/27 01:44:26;;;;;;;5.47;4.95;;;;;;;;;;5133767;27;20469;-83
2022/11/27 01:47:06;;;;;;;6.35;5.35;;;;;;;;;;5133685;27;20883;-84
2022/11/27 01:49:32;;;;;;;5.50;5.00;;;;;;;;;;5134051;27;20425;-83
2022/11/27 01:51:58;;;;;;;5.88;5.38;;;;;;;;;;5133690;27;20383;-84
2022/11/27 01:54:26;;;;;;;5.93;5.32;;;;;;;;;;5115524;27;20410;-84
2022/11/27 01:56:55;;;;;;;5.75;5.00;;;;;;;;;;5133560;27;20449;-84
2022/11/27 01:59:21;;;;;;;6.20;5.07;;;;;;;;;;5133773;27;20426;-84
2022/11/27 02:01:47;;;;;;;7.80;5.10;;;;;;;;;;5133674;27;20490;-84
2022/11/27 02:04:13;;;;;;;7.10;4.88;;;;;;;;;;5133533;27;20382;-84
2022/11/27 02:06:39;;;;;;;5.57;5.00;;;;;;;;;;5133573;27;20389;-84
2022/11/27 02:09:06;;;;;;;6.20;5.15;;;;;;;;;;5133437;27;20879;-84
2022/11/27 02:11:41;;;;;;;5.72;4.65;;;;;;;;;;5133218;27;20477;-85
2022/11/27 02:14:22;;;;;;;5.47;4.97;;;;;;;;;;5114986;28;20864;-84
2022/11/27 02:16:52;;;;;;;5.75;4.60;;;;;;;;;;5133309;27;20481;-84
2022/11/27 02:19:21;;;;;;;5.35;4.85;;;;;;;;;;5133400;27;20911;-84
2022/11/27 02:21:54;;;;;;;5.30;4.80;;;;;;;;;;5133170;27;20378;-84
2022/11/27 02:24:43;;;;;;;5.32;4.82;;;;;;;;;;5133190;27;20446;-84
2022/11/27 02:27:12;;;;;;;5.32;4.82;;;;;;;;;;5108748;27;20384;-84
2022/11/27 02:29:39;;;;;;;6.63;4.93;;;;;;;;;;5111300;28;20865;-85
2022/11/27 02:32:15;;;;;;;5.80;4.88;;;;;;;;;;5112443;28;20400;-84
2022/11/27 02:34:54;;;;;;;5.88;5.20;;;;;;;;;;5123617;27;20459;-85
2022/11/27 02:37:42;;;;;;;6.20;5.30;;;;;;;;;;5128181;27;20537;-84
2022/11/27 02:40:11;;;;;;;5.18;4.68;;;;;;;;;;5126504;27;20474;-84
2022/11/27 02:42:40;;;;;;;6.73;4.93;;;;;;;;;;5114481;27;20852;-84
2022/11/27 02:45:09;;;;;;;5.30;4.80;;;;;;;;;;5132986;27;20381;-85
2022/11/27 02:47:35;;;;;;;5.22;4.72;;;;;;;;;;5133031;27;20390;-85
2022/11/27 02:50:02;;;;;;;5.50;4.75;;;;;;;;;;5114691;27;20801;-84
2022/11/27 02:52:29;;;;;;;6.03;4.75;;;;;;;;;;5137144;27;20382;-84
2022/11/27 02:54:57;;;;;;;5.88;4.57;;;;;;;;;;5137069;27;20384;-84
2022/11/27 02:57:24;;;;;;;5.38;4.53;;;;;;;;;;5137099;27;20842;-84
2022/11/27 02:59:51;;;;;;;5.57;4.57;;;;;;;;;;5136909;27;20406;-84
2022/11/27 03:02:22;;;;;;;4.80;4.20;;;;;;;;;;5136908;27;20374;-85
2022/11/27 03:04:50;;;;;;;5.10;4.60;;;;;;;;;;5137012;27;20421;-84
2022/11/27 03:07:27;;;;;;;5.43;4.43;;;;;;;;;;5136787;27;20366;-84
2022/11/27 03:09:56;;;;;;;5.05;4.55;;;;;;;;;;5136698;27;20439;-84
2022/11/27 03:12:22;;;;;;;4.78;4.38;;;;;;;;;;5136192;27;20421;-84
2022/11/27 03:14:48;;;;;;;4.70;4.30;;;;;;;;;;5133335;27;20376;-84
2022/11/27 03:17:33;;;;;;;5.75;4.72;;;;;;;;;;5136655;27;20402;-84
2022/11/27 03:19:59;;;;;;;5.03;4.57;;;;;;;;;;5136642;27;20369;-84
2022/11/27 03:22:26;;;;;;;5.22;4.72;;;;;;;;;;5129442;27;20394;-84
2022/11/27 03:24:52;;;;;;;4.97;4.47;;;;;;;;;;5120951;27;20871;-84
2022/11/27 03:27:21;;;;;;;5.53;4.50;;;;;;;;;;5134671;27;20371;-84
2022/11/27 03:29:52;;;;;;;4.90;4.50;;;;;;;;;;5147592;27;20381;-84
2022/11/27 03:32:18;;;;;;;5.20;4.60;;;;;;;;;;5117450;27;20411;-85
2022/11/27 03:34:45;;;;;;;5.70;4.78;;;;;;;;;;5123071;28;20376;-85
2022/11/27 03:37:11;;;;;;;5.40;4.90;;;;;;;;;;5124166;28;20774;-84
2022/11/27 03:39:37;;;;;;;5.10;4.60;;;;;;;;;;5127054;28;20368;-84
2022/11/27 03:42:06;;;;;;;5.50;5.00;;;;;;;;;;5129872;28;20410;-83
2022/11/27 03:44:32;;;;;;;5.63;4.90;;;;;;;;;;5122542;28;20516;-86
2022/11/27 03:47:24;;;;;;;6.43;4.90;;;;;;;;;;5117769;28;20398;-83
2022/11/27 03:50:06;;;;;;;5.13;4.45;;;;;;;;;;5118441;27;20478;-84
2022/11/27 03:52:32;;;;;;;5.60;4.97;;;;;;;;;;5118070;27;20442;-83
2022/11/27 03:55:08;;;;;;;5.10;4.60;;;;;;;;;;5118002;27;20386;-84
2022/11/27 03:57:50;;;;;;;5.10;4.60;;;;;;;;;;5135895;27;20398;-85
2022/11/27 04:00:16;;;;;;;4.97;4.35;;;;;;;;;;5136355;27;20378;-83
2022/11/27 04:02:44;;;;;;;5.20;4.03;;;;;;;;;;5117405;27;20401;-87
2022/11/27 04:05:11;;;;;;;4.45;4.03;;;;;;;;;;5135991;27;20370;-83
2022/11/27 04:07:37;;;;;;;4.85;4.45;;;;;;;;;;5136093;27;20443;-85
2022/11/27 04:10:04;;;;;;;4.38;3.97;;;;;;;;;;5135825;27;20374;-86
2022/11/27 04:12:30;;;;;;;4.78;3.90;;;;;;;;;;5135758;27;20379;-85
2022/11/27 04:14:56;;;;;;;4.28;3.72;;;;;;;;;;5135745;27;20508;-86
2022/11/27 04:17:22;;;;;;;5.53;3.80;;;;;;;;;;5135674;27;20395;-85
2022/11/27 04:19:48;;;;;;;4.20;3.80;;;;;;;;;;5135629;27;20370;-86
2022/11/27 04:22:14;;;;;;;4.68;4.28;;;;;;;;;;5117523;27;20378;-86
2022/11/27 04:24:40;;;;;;;4.95;4.50;;;;;;;;;;5138203;27;20459;-85
2022/11/27 04:27:06;;;;;;;6.07;4.30;;;;;;;;;;5135305;27;20454;-85
2022/11/27 04:29:32;;;;;;;5.65;4.25;;;;;;;;;;5135817;27;20375;-85
2022/11/27 04:31:58;;;;;;;4.00;3.60;;;;;;;;;;5135189;27;20428;-85
2022/11/27 04:34:24;;;;;;;4.53;4.13;;;;;;;;;;5135205;27;20855;-85
2022/11/27 04:36:50;;;;;;;4.40;4.00;;;;;;;;;;5123007;27;20407;-86
2022/11/27 04:39:16;;;;;;;4.30;3.90;;;;;;;;;;5135050;27;20374;-86
2022/11/27 04:41:42;;;;;;;4.18;3.88;;;;;;;;;;5137722;27;20384;-85
2022/11/27 04:44:08;;;;;;;4.30;3.78;;;;;;;;;;5135075;27;20366;-84
2022/11/27 04:46:34;;;;;;;5.00;4.50;;;;;;;;;;5133759;27;20856;-84
2022/11/27 04:49:00;;;;;;;4.70;4.10;;;;;;;;;;5116479;27;20390;-84
2022/11/27 04:51:26;;;;;;;3.95;3.63;;;;;;;;;;5134673;27;20383;-83
2022/11/27 04:53:52;;;;;;;4.70;4.30;;;;;;;;;;5134872;27;20412;-85
2022/11/27 04:56:18;;;;;;;4.57;4.18;;;;;;;;;;5134613;27;20825;-84
2022/11/27 04:58:44;;;;;;;5.00;4.10;;;;;;;;;;5134710;27;20450;-84
2022/11/27 05:01:10;;;;;;;4.60;4.20;;;;;;;;;;5121293;27;20483;-85
2022/11/27 05:03:36;;;;;;;4.75;4.03;;;;;;;;;;5118389;27;20908;-84
2022/11/27 05:06:02;;;;;;;4.53;4.13;;;;;;;;;;5126576;27;20381;-86
2022/11/27 05:08:29;;;;;;;5.47;4.32;;;;;;;;;;5133751;27;20410;-86
2022/11/27 05:11:02;;;;;;;4.68;4.18;;;;;;;;;;5133539;27;20390;-86
2022/11/27 05:13:28;;;;;;;4.57;4.18;;;;;;;;;;5131006;27;20443;-84
2022/11/27 05:15:54;;;;;;;4.70;4.30;;;;;;;;;;5133678;27;20387;-84
2022/11/27 05:18:20;;;;;;;4.65;4.30;;;;;;;;;;5134442;27;20835;-84
2022/11/27 05:20:46;;;;;;;4.55;4.18;;;;;;;;;;5134333;27;20386;-84
2022/11/27 05:23:12;;;;;;;5.05;4.55;;;;;;;;;;5115660;27;20395;-85
2022/11/27 05:25:38;;;;;;;4.60;4.20;;;;;;;;;;5133121;27;20382;-84
2022/11/27 05:28:04;;;;;;;5.32;4.45;;;;;;;;;;5126178;27;20463;-86
2022/11/27 05:30:30;;;;;;;5.05;4.45;;;;;;;;;;5115719;27;20382;-84
2022/11/27 05:32:56;;;;;;;4.80;4.40;;;;;;;;;;5115793;27;20390;-84
2022/11/27 05:35:22;;;;;;;4.78;4.05;;;;;;;;;;5133979;27;20382;-86
2022/11/27 05:37:48;;;;;;;4.75;4.35;;;;;;;;;;5115466;27;21001;-84
2022/11/27 05:40:14;;;;;;;4.80;4.30;;;;;;;;;;5133871;27;20377;-84
2022/11/27 05:42:40;;;;;;;4.67;4.23;;;;;;;;;;5133747;27;20370;-86
2022/11/27 05:45:06;;;;;;;5.22;4.82;;;;;;;;;;5133701;27;20402;-86
2022/11/27 05:47:32;;;;;;;4.97;4.55;;;;;;;;;;5115219;27;20387;-86
2022/11/27 05:49:58;;;;;;;5.32;4.85;;;;;;;;;;5133787;27;20796;-84
2022/11/27 05:52:24;;;;;;;4.95;4.55;;;;;;;;;;5133526;27;20472;-85
2022/11/27 05:54:50;;;;;;;5.70;5.05;;;;;;;;;;5133565;27;20428;-86
2022/11/27 05:57:16;;;;;;;5.53;5.03;;;;;;;;;;5132990;27;20410;-85
2022/11/27 05:59:42;;;;;;;5.03;4.63;;;;;;;;;;5119443;27;20406;-85
2022/11/27 06:02:08;;;;;;;5.22;4.80;;;;;;;;;;5124021;27;20780;-85
2022/11/27 06:04:34;;;;;;;5.45;4.95;;;;;;;;;;5118494;27;20398;-86
2022/11/27 06:07:00;;;;;;;4.80;4.40;;;;;;;;;;5126271;27;20372;-86
2022/11/27 06:09:26;;;;;;;5.37;4.87;;;;;;;;;;5118639;27;20864;-86
2022/11/27 06:11:52;;;;;;;5.30;4.90;;;;;;;;;;5117477;27;20418;-86
2022/11/27 06:14:19;;;;;;;5.77;5.27;;;;;;;;;;5113700;27;20395;-86
2022/11/27 06:16:45;;;;;;;5.57;5.07;;;;;;;;;;5114794;27;20401;-86
2022/11/27 06:19:11;;;;;;;5.50;5.00;;;;;;;;;;5116221;27;20871;-86
2022/11/27 06:21:37;;;;;;;5.53;4.93;;;;;;;;;;5119716;27;20372;-86
2022/11/27 06:24:03;;;;;;;5.28;4.85;;;;;;;;;;5125041;27;20775;-86
2022/11/27 06:26:30;;;;;;;5.55;4.95;;;;;;;;;;5122032;27;20407;-85
2022/11/27 06:28:57;;;;;;;5.80;5.22;;;;;;;;;;5112870;27;20383;-86
2022/11/27 06:31:24;;;;;;;5.70;5.15;;;;;;;;;;5114106;27;20379;-85
2022/11/27 06:33:51;;;;;;;5.60;5.10;;;;;;;;;;5116195;27;20382;-86
2022/11/27 06:36:24;;;;;;;7.10;5.22;;;;;;;;;;5106300;28;20400;-86
2022/11/27 06:38:50;;;;;;;6.40;5.35;;;;;;;;;;5114847;27;20377;-85
2022/11/27 06:41:17;;;;;;;6.00;5.28;;;;;;;;;;5114096;27;20428;-86
2022/11/27 06:43:44;;;;;;;14.27;9.52;;;;;;;;;;5119924;27;20372;-85
2022/11/27 06:46:14;;;;;;;15.77;10.20;;;;;;;;;;5124512;27;20408;-84
2022/11/27 06:48:41;;;;;;;15.32;12.07;;;;;;;;;;5112663;27;20420;-85
2022/11/27 06:51:07;;;;;;;13.05;10.82;;;;;;;;;;5123258;27;20402;-84
2022/11/27 06:53:34;;;;;;;9.07;8.18;;;;;;;;;;5122642;27;20455;-84
2022/11/27 06:56:02;;;;;;;6.63;5.93;;;;;;;;;;5127493;27;20382;-84
2022/11/27 06:58:28;;;;;;;7.25;6.57;;;;;;;;;;5119518;27;20379;-86
2022/11/27 07:01:01;;;;;;;6.57;5.97;;;;;;;;;;5132957;27;20379;-86
2022/11/27 07:03:27;;;;;;;7.28;6.57;;;;;;;;;;5133095;27;20473;-86
2022/11/27 07:05:53;;;;;;;7.55;6.38;;;;;;;;;;5135427;27;20374;-86
2022/11/27 07:08:19;;;;;;;7.88;7.07;;;;;;;;;;5134695;27;20443;-86
2022/11/27 07:10:45;;;;;;;8.90;7.00;;;;;;;;;;5141810;27;20404;-85
2022/11/27 07:13:11;;;;;;;8.25;6.30;;;;;;;;;;5138538;27;20407;-86
2022/11/27 07:15:37;;;;;;;9.13;6.35;;;;;;;;;;5135795;27;20874;-86
2022/11/27 07:18:03;;;;;;;9.55;6.35;;;;;;;;;;5129451;27;20459;-83
2022/11/27 07:20:29;;;;;;;7.47;6.25;;;;;;;;;;5114607;27;20455;-84
2022/11/27 07:22:55;;;;;;;7.45;6.10;;;;;;;;;;5124786;27;20374;-85
2022/11/27 07:25:21;;;;;;;9.37;6.63;;;;;;;;;;5132960;27;20566;-85
2022/11/27 07:27:47;;;;;;;9.23;7.47;;;;;;;;;;5105503;28;20443;-85
2022/11/27 07:30:13;;;;;;;8.83;6.93;;;;;;;;;;5132077;27;20378;-85
2022/11/27 07:32:42;;;;;;;9.35;8.23;;;;;;;;;;5132581;27;20410;-85
2022/11/27 07:35:09;;;;;;;10.52;9.48;;;;;;;;;;5133587;27;20414;-83
2022/11/27 07:37:35;;;;;;;9.35;7.38;;;;;;;;;;5130183;27;20828;-83
2022/11/27 07:40:01;;;;;;;8.27;7.40;;;;;;;;;;5128801;27;20719;-83
2022/11/27 07:42:28;;;;;;;10.35;8.15;;;;;;;;;;5135869;27;20370;-83
2022/11/27 07:44:54;;;;;;;12.45;9.15;;;;;;;;;;5135536;27;20386;-84
2022/11/27 07:47:20;;;;;;;11.25;8.77;;;;;;;;;;5136476;27;20390;-83
2022/11/27 07:49:46;;;;;;;11.60;9.30;;;;;;;;;;5136096;27;20378;-84
2022/11/27 07:52:12;;;;;;;11.60;9.70;;;;;;;;;;5135341;27;20405;-83
2022/11/27 07:54:38;;;;;;;13.98;10.60;;;;;;;;;;5135702;27;20371;-82
2022/11/27 07:57:04;;;;;;;12.45;10.02;;;;;;;;;;5135964;27;20398;-82
2022/11/27 07:59:30;;;;;;;15.43;10.13;;;;;;;;;;5117812;27;20425;-84
2022/11/27 08:01:56;;;;;;;12.35;10.77;;;;;;;;;;5118485;27;20406;-81
2022/11/27 08:04:23;;;;;;;13.73;9.97;;;;;;;;;;5136690;27;20371;-80
2022/11/27 08:06:49;;;;;;;11.80;9.57;;;;;;;;;;5136369;27;20379;-82
2022/11/27 08:09:15;;;;;;;12.30;10.55;;;;;;;;;;5136736;27;20406;-83
2022/11/27 08:11:41;;;;;;;14.90;11.03;;;;;;;;;;5135985;27;20866;-84
2022/11/27 08:14:08;;;;;;;13.10;10.38;;;;;;;;;;5136158;27;20391;-82
2022/11/27 08:16:35;;;;;;;15.18;11.40;;;;;;;;;;5122293;27;20451;-82
2022/11/27 08:19:01;;;;;;;14.15;11.32;;;;;;;;;;5136203;27;20488;-82
2022/11/27 08:21:27;;;;;;;14.45;11.32;;;;;;;;;;5138586;27;20454;-82
2022/11/27 08:23:54;;;;;;;11.90;10.65;;;;;;;;;;5135427;27;20370;-82
2022/11/27 08:26:20;;;;;;;15.73;11.15;;;;;;;;;;5109904;28;20380;-84
2022/11/27 08:28:46;;;;;;;15.25;10.68;;;;;;;;;;5135845;27;20379;-84
2022/11/27 08:31:13;;;;;;;18.05;12.35;;;;;;;;;;5136039;27;20886;-83
2022/11/27 08:33:39;;;;;;;16.45;11.65;;;;;;;;;;5135493;27;20378;-83
2022/11/27 08:36:05;;;;;;;17.05;11.88;;;;;;;;;;5133791;27;20382;-84
2022/11/27 08:38:31;;;;;;;16.38;11.95;;;;;;;;;;5122040;27;20384;-84
2022/11/27 08:40:58;;;;;;;18.83;11.65;;;;;;;;;;5118730;27;20380;-86
2022/11/27 08:43:25;;;;;;;15.95;11.55;;;;;;;;;;5138563;27;20374;-87
2022/11/27 08:45:51;;;;;;;18.27;12.07;;;;;;;;;;5128614;27;20911;-85
2022/11/27 08:48:17;;;;;;;20.58;12.52;;;;;;;;;;5133830;27;20390;-86
2022/11/27 08:50:43;;;;;;;20.77;12.57;;;;;;;;;;5136629;27;20383;-87
2022/11/27 08:53:10;;;;;;;16.15;11.55;;;;;;;;;;5135374;27;20442;-87
2022/11/27 08:55:36;;;;;;;15.87;11.87;;;;;;;;;;5137025;27;20855;-88
2022/11/27 08:58:02;;;;;;;16.25;12.23;;;;;;;;;;5135633;27;20406;-89
2022/11/27 09:00:29;;;;;;;16.50;12.60;;;;;;;;;;5137188;27;20458;-89
2022/11/27 09:02:55;;;;;;;18.38;13.95;;;;;;;;;;5135456;27;20371;-86
2022/11/27 09:05:21;;;;;;;16.92;13.05;;;;;;;;;;5136276;27;20371;-89
2022/11/27 09:07:47;;;;;;;18.20;12.93;;;;;;;;;;5134566;27;20387;-90
2022/11/27 09:10:13;;;;;;;17.30;12.57;;;;;;;;;;5104137;27;20532;-90
2022/11/27 09:12:39;;;;;;;17.17;12.35;;;;;;;;;;5130805;27;20381;-90
2022/11/27 09:15:05;;;;;;;17.67;12.82;;;;;;;;;;5119743;27;20417;-88
2022/11/27 09:17:31;;;;;;;19.75;13.05;;;;;;;;;;5119481;27;20506;-86
2022/11/27 09:19:57;;;;;;;18.25;12.68;;;;;;;;;;5132412;27;20394;-87
2022/11/27 09:22:23;;;;;;;18.92;13.15;;;;;;;;;;5135789;27;20378;-87
2022/11/27 09:24:49;;;;;;;18.77;12.80;;;;;;;;;;5125594;27;20414;-89
2022/11/27 09:27:15;;;;;;;17.48;12.32;;;;;;;;;;5110060;27;20398;-88
2022/11/27 09:29:41;;;;;;;16.98;11.85;;;;;;;;;;5134500;27;20381;-89
2022/11/27 09:32:07;;;;;;;18.75;12.18;;;;;;;;;;5120890;27;20382;-90
2022/11/27 09:34:33;;;;;;;15.98;12.43;;;;;;;;;;5131494;27;20443;-88
2022/11/27 09:36:59;;;;;;;18.60;13.32;;;;;;;;;;5134054;27;20403;-90
2022/11/27 09:39:29;;;;;;;15.52;12.80;;;;;;;;;;5115275;27;20382;-89
2022/11/27 09:41:57;;;;;;;16.52;12.73;;;;;;;;;;5123983;27;20367;-90
2022/11/27 09:44:23;;;;;;;18.67;13.65;;;;;;;;;;5133733;27;20374;-90
2022/11/27 09:46:50;;;;;;;16.60;13.25;;;;;;;;;;5133969;27;20919;-88
2022/11/27 09:49:27;;;;;;;16.70;14.20;;;;;;;;;;5134317;27;20379;-87
2022/11/27 09:51:57;;;;;;;18.63;13.93;;;;;;;;;;5134720;27;20730;-85
2022/11/27 09:54:47;;;;;;;18.10;14.73;;;;;;;;;;5135952;27;20401;-84
2022/11/27 09:57:17;;;;;;;17.25;13.85;;;;;;;;;;5080403;27;20818;-83
2022/11/27 09:59:45;;;;;;;15.27;13.60;;;;;;;;;;5132128;27;20414;-88
2022/11/27 10:02:28;;;;;;;15.60;13.25;;;;;;;;;;5134090;27;20459;-83
2022/11/27 10:04:54;;;;;;;17.13;14.18;;;;;;;;;;5127351;27;20422;-83
2022/11/27 10:07:36;;;;;;;17.10;14.38;;;;;;;;;;5132795;27;20378;-82
2022/11/27 10:10:11;;;;;;;20.02;15.73;;;;;;;;;;5133864;27;20441;-82
2022/11/27 10:12:43;;;;;;;18.30;14.65;;;;;;;;;;5135447;27;20403;-83
2022/11/27 10:15:09;;;;;;;17.48;14.02;;;;;;;;;;5127768;27;20390;-83
2022/11/27 10:17:41;;;;;;;20.30;14.52;;;;;;;;;;5130484;27;21024;-83
2022/11/27 10:20:27;;;;;;;17.08;15.25;;;;;;;;;;5133473;27;20470;-83
2022/11/27 10:22:56;;;;;;;16.80;14.98;;;;;;;;;;5116945;27;20389;-85
2022/11/27 10:25:41;;;;;;;15.80;14.18;;;;;;;;;;5133837;27;20858;-82
2022/11/27 10:28:10;;;;;;;16.77;14.52;;;;;;;;;;5130594;27;20498;-82
2022/11/27 10:30:42;;;;;;;17.38;14.82;;;;;;;;;;5128121;27;20417;-83
2022/11/27 10:33:15;;;;;;;16.70;14.90;;;;;;;;;;5132967;27;20445;-83
2022/11/27 10:35:42;;;;;;;19.83;16.77;;;;;;;;;;5106987;28;20425;-83
2022/11/27 10:38:14;;;;;;;20.50;17.03;;;;;;;;;;5114037;28;20427;-84
2022/11/27 10:40:44;;;;;;;23.10;17.10;;;;;;;;;;5132985;27;20488;-83
2022/11/27 10:43:10;;;;;;;21.92;17.55;;;;;;;;;;5133442;27;20374;-85
2022/11/27 10:45:49;;;;;;;25.33;17.42;;;;;;;;;;5150222;27;20522;-83
2022/11/27 10:48:15;;;;;;;19.45;17.35;;;;;;;;;;5125711;27;20482;-83
2022/11/27 10:50:42;;;;;;;18.50;15.90;;;;;;;;;;5116445;28;20459;-83
2022/11/27 10:53:11;;;;;;;15.57;14.00;;;;;;;;;;5132770;27;20457;-81
2022/11/27 10:55:39;;;;;;;16.55;14.70;;;;;;;;;;5133743;27;20393;-84
2022/11/27 10:58:26;;;;;;;19.08;16.23;;;;;;;;;;5131588;27;20454;-84
2022/11/27 11:01:05;;;;;;;16.58;14.90;;;;;;;;;;5132597;27;20410;-84
2022/11/27 11:03:31;;;;;;;15.10;13.60;;;;;;;;;;5116306;27;20470;-81
2022/11/27 11:05:59;;;;;;;14.65;13.15;;;;;;;;;;5128380;27;20382;-82
2022/11/27 11:08:27;;;;;;;15.73;14.13;;;;;;;;;;5114625;28;20471;-84
2022/11/27 11:10:57;;;;;;;14.93;13.52;;;;;;;;;;5133328;27;20843;-86
2022/11/27 11:13:27;;;;;;;15.02;13.38;;;;;;;;;;5136997;27;20898;-83
2022/11/27 11:15:58;;;;;;;13.63;12.52;;;;;;;;;;5132207;27;20727;-84
2022/11/27 11:18:28;;;;;;;15.65;14.05;;;;;;;;;;5136889;27;20382;-83
2022/11/27 11:20:59;;;;;;;16.42;14.60;;;;;;;;;;5137036;27;20839;-79
2022/11/27 11:23:29;;;;;;;15.47;13.87;;;;;;;;;;5136899;27;20463;-79
2022/11/27 11:25:57;;;;;;;15.50;14.00;;;;;;;;;;5133748;27;20424;-79
2022/11/27 11:28:24;;;;;;;16.70;14.85;;;;;;;;;;5131219;27;20374;-80
2022/11/27 11:30:55;;;;;;;16.05;14.38;;;;;;;;;;5137168;27;20398;-81
2022/11/27 11:33:21;;;;;;;15.82;13.85;;;;;;;;;;5136926;27;20428;-80
2022/11/27 11:35:51;;;;;;;14.63;13.32;;;;;;;;;;5136010;27;20417;-82
2022/11/27 11:38:22;;;;;;;14.80;13.40;;;;;;;;;;5117268;27;20391;-82
2022/11/27 11:40:58;;;;;;;13.98;12.73;;;;;;;;;;5117955;27;20571;-82
2022/11/27 11:43:26;;;;;;;15.35;13.70;;;;;;;;;;5136669;27;20502;-80
2022/11/27 11:45:52;;;;;;;15.37;13.83;;;;;;;;;;5136733;27;20385;-81
2022/11/27 11:48:21;;;;;;;13.90;12.60;;;;;;;;;;5118173;27;20379;-82
2022/11/27 11:50:47;;;;;;;15.37;13.87;;;;;;;;;;5136557;27;20953;-81
2022/11/27 11:53:19;;;;;;;16.17;14.65;;;;;;;;;;5136681;27;20386;-79
2022/11/27 11:55:52;;;;;;;14.98;13.55;;;;;;;;;;5136712;27;20390;-83
2022/11/27 11:58:30;;;;;;;15.00;13.50;;;;;;;;;;5135323;27;20489;-81
2022/11/27 12:01:01;;;;;;;15.68;14.20;;;;;;;;;;5113803;27;20458;-80
2022/11/27 12:03:30;;;;;;;14.95;13.55;;;;;;;;;;5135778;27;20405;-81
2022/11/27 12:06:11;;;;;;;15.57;14.05;;;;;;;;;;5138281;27;20442;-80
2022/11/27 12:08:44;;;;;;;15.05;13.57;;;;;;;;;;5135907;27;20375;-80
2022/11/27 12:11:23;;;;;;;15.68;14.07;;;;;;;;;;5136440;27;20397;-81
2022/11/27 12:14:04;;;;;;;14.00;12.73;;;;;;;;;;5130765;27;20968;-81
2022/11/27 12:16:39;;;;;;;14.30;13.00;;;;;;;;;;5130765;27;20405;-83
2022/11/27 12:19:23;;;;;;;14.68;13.30;;;;;;;;;;5135830;27;20513;-80
2022/11/27 12:21:54;;;;;;;14.63;13.32;;;;;;;;;;5117188;27;20430;-81
2022/11/27 12:24:39;;;;;;;14.88;13.48;;;;;;;;;;5135848;27;20386;-79
2022/11/27 12:27:20;;;;;;;14.15;12.95;;;;;;;;;;5129966;27;20395;-83
2022/11/27 12:29:46;;;;;;;14.17;12.87;;;;;;;;;;5114604;27;20396;-81
2022/11/27 12:32:18;;;;;;;13.50;12.30;;;;;;;;;;5128634;27;20384;-80
2022/11/27 12:34:55;;;;;;;14.13;12.83;;;;;;;;;;5114755;27;20388;-82
2022/11/27 12:37:23;;;;;;;15.27;13.88;;;;;;;;;;5114403;27;20423;-83
2022/11/27 12:40:08;;;;;;;15.13;13.73;;;;;;;;;;5116919;27;20487;-82
2022/11/27 12:42:39;;;;;;;14.30;12.90;;;;;;;;;;5134358;27;20420;-81
2022/11/27 12:45:11;;;;;;;13.85;12.57;;;;;;;;;;5114797;27;20409;-82
2022/11/27 12:47:39;;;;;;;13.90;12.68;;;;;;;;;;5130609;27;20371;-83
2022/11/27 12:50:09;;;;;;;13.68;12.48;;;;;;;;;;5110430;27;20431;-85
2022/11/27 12:52:39;;;;;;;14.50;13.15;;;;;;;;;;5134639;27;20386;-83
2022/11/27 12:55:11;;;;;;;17.25;15.65;;;;;;;;;;5131774;27;20876;-83
2022/11/27 12:57:43;;;;;;;16.05;14.55;;;;;;;;;;5134662;27;20755;-83
2022/11/27 13:00:19;;;;;;;14.32;13.05;;;;;;;;;;5134862;27;20375;-82
2022/11/27 13:03:06;;;;;;;13.05;11.85;;;;;;;;;;5127879;27;20450;-81
2022/11/27 13:05:38;;;;;;;13.38;12.10;;;;;;;;;;5133224;27;20839;-83
2022/11/27 13:08:10;;;;;;;13.00;11.80;;;;;;;;;;5129824;27;20392;-82
2022/11/27 13:10:41;;;;;;;13.27;12.10;;;;;;;;;;5134023;27;20398;-83
2022/11/27 13:13:13;;;;;;;14.02;12.73;;;;;;;;;;5134483;27;20366;-83
2022/11/27 13:15:44;;;;;;;14.70;13.27;;;;;;;;;;5134671;27;20370;-83
2022/11/27 13:18:18;;;;;;;12.98;11.77;;;;;;;;;;5134731;27;20407;-82
2022/11/27 13:20:45;;;;;;;13.77;12.48;;;;;;;;;;5134633;27;20731;-83
2022/11/27 13:23:11;;;;;;;12.23;11.15;;;;;;;;;;5134859;27;20375;-82
2022/11/27 13:25:44;;;;;;;13.18;12.13;;;;;;;;;;5133830;27;20382;-82
2022/11/27 13:28:26;;;;;;;13.10;11.88;;;;;;;;;;5127763;27;20379;-82
2022/11/27 13:30:54;;;;;;;13.15;12.00;;;;;;;;;;5134203;27;20371;-82
2022/11/27 13:33:27;;;;;;;11.80;10.70;;;;;;;;;;5115620;27;20474;-82
2022/11/27 13:35:53;;;;;;;13.38;12.18;;;;;;;;;;5134137;27;20389;-82
2022/11/27 13:38:22;;;;;;;12.60;11.50;;;;;;;;;;5134184;27;20456;-81
2022/11/27 13:40:50;;;;;;;13.75;12.35;;;;;;;;;;5134015;27;20374;-81
2022/11/27 13:43:27;;;;;;;12.98;11.82;;;;;;;;;;5134244;27;20439;-82
2022/11/27 13:46:04;;;;;;;12.57;11.48;;;;;;;;;;5134235;27;20475;-81
2022/11/27 13:48:32;;;;;;;13.20;12.02;;;;;;;;;;5134450;27;20371;-82
2022/11/27 13:50:59;;;;;;;13.70;12.40;;;;;;;;;;5133890;27;20375;-83
2022/11/27 13:53:32;;;;;;;13.13;12.02;;;;;;;;;;5134121;27;20757;-83
2022/11/27 13:55:58;;;;;;;13.40;12.20;;;;;;;;;;5133952;27;20700;-83
2022/11/27 13:58:31;;;;;;;12.50;11.47;;;;;;;;;;5133984;27;20417;-83
2022/11/27 14:00:58;;;;;;;14.02;12.63;;;;;;;;;;5133946;27;20375;-83
2022/11/27 14:03:28;;;;;;;14.65;13.32;;;;;;;;;;5133907;27;20391;-83
2022/11/27 14:05:54;;;;;;;15.23;13.68;;;;;;;;;;5134202;27;20381;-82
2022/11/27 14:08:29;;;;;;;16.40;14.73;;;;;;;;;;5133544;27;20371;-81
2022/11/27 14:11:00;;;;;;;16.50;14.70;;;;;;;;;;5136714;27;20447;-81
2022/11/27 14:13:33;;;;;;;16.23;14.70;;;;;;;;;;5133635;27;20371;-81
2022/11/27 14:16:00;;;;;;;15.63;14.25;;;;;;;;;;5133507;27;20406;-83
2022/11/27 14:18:27;;;;;;;14.63;13.27;;;;;;;;;;5136318;27;20387;-81
2022/11/27 14:20:56;;;;;;;16.27;14.77;;;;;;;;;;5148260;27;20385;-83
2022/11/27 14:23:33;;;;;;;15.52;14.13;;;;;;;;;;5138927;27;20378;-80
2022/11/27 14:26:03;;;;;;;14.98;13.68;;;;;;;;;;5131511;27;20763;-83
2022/11/27 14:28:30;;;;;;;15.57;14.02;;;;;;;;;;5130471;27;20461;-81
2022/11/27 14:30:58;;;;;;;16.10;14.53;;;;;;;;;;5134474;27;20378;-83
2022/11/27 14:33:32;;;;;;;16.00;14.40;;;;;;;;;;5115508;27;20383;-82
2022/11/27 14:35:59;;;;;;;15.95;14.35;;;;;;;;;;5132161;27;20378;-83
2022/11/27 14:38:26;;;;;;;15.77;14.27;;;;;;;;;;5126212;27;20411;-82
2022/11/27 14:40:53;;;;;;;16.10;14.50;;;;;;;;;;5133043;27;20375;-82